Flight Track Log - Related Links

Times and Time Zones

All times are in EDT time to prevent confusion due to time zone crossing. See the N22WU flight status page for this flight to view local times or setup timezone preferences in your user account.

Time Position Orientation Groundspeed Altitude Reporting Facility
EDT Latitude Longitude Course Direction KTS MPH feet Rate Location/Type
Thu 02:39:18 PM 42.2664 -85.2425 233° Southwest 110 127 2,800  Level Chicago Center
Thu 02:40:20 PM 42.2547 -85.2908 252° West 122 140 3,500 339 Climbing Chicago Center
Thu 02:41:22 PM 42.2556 -85.3411 271° West 130 150 3,500 97 Level Chicago Center
Thu 02:42:24 PM 42.2325 -85.3864 235° Southwest 149 171 3,700 -48 Climbing Chicago Center
Thu 02:43:00 PM 42.1783 -85.4820 233° Southwest  Level Estimated
Thu 02:43:26 PM 42.2064 -85.4306 231° Southwest 149 171 3,400  Level Chicago Center
Thu 02:44:00 PM 42.1568 -85.5206 233° Southwest  Level Estimated
Thu 02:44:29 PM 42.1764 -85.4828 232° Southwest 149 171 3,500  Level Chicago Center
Thu 02:45:31 PM 42.1525 -85.5269 234° Southwest 147 169 3,500  Level Chicago Center
Thu 02:46:33 PM 42.1292 -85.5719 235° Southwest 146 168 3,500  Level Chicago Center
Thu 02:47:35 PM 42.1058 -85.6144 234° Southwest 144 166 3,500  Level Chicago Center
Thu 02:48:37 PM 42.0814 -85.6572 232° Southwest 144 166 3,500  Level Chicago Center
Thu 02:49:39 PM 42.0525 -85.7097 233° Southwest 145 167 3,500  Level Chicago Center
Thu 02:50:41 PM 42.0283 -85.7531 233° Southwest 145 167 3,500  Level Chicago Center
Thu 02:51:43 PM 42.0033 -85.7956 232° Southwest 145 167 3,500  Level Chicago Center
Thu 02:52:45 PM 41.9797 -85.8386 234° Southwest 145 167 3,500  Level Chicago Center
Thu 02:53:47 PM 41.9558 -85.8819 233° Southwest 145 167 3,500  Level Chicago Center
Thu 02:54:49 PM 41.9267 -85.9328 232° Southwest 144 166 3,500  Level Chicago Center
Thu 02:55:53 PM 41.9083 -85.9700 237° Southwest 145 167 3,500  Level Chicago Center
Thu 02:56:54 PM 41.8797 -86.0225 234° Southwest 146 168 3,500  Level Chicago Center
Thu 02:57:56 PM 41.8567 -86.0647 234° Southwest 144 166 3,500  Level Chicago Center
Thu 02:59:00 PM 41.8333 -86.1069 233° Southwest 143 165 3,500  Level Chicago Center
Thu 03:00:02 PM 41.8181 -86.1678 251° West 148 170 3,500 -97 Level Chicago Center
Thu 03:01:04 PM 41.8072 -86.2183 254° West 145 167 3,300 -240 Descending Chicago Center
Thu 03:02:07 PM 41.7986 -86.2714 258° West 145 167 3,000 -286 Descending Chicago Center

Login

Don't have an account? Register now (free) for customized features, flight alerts, and more!